Aneth, Utah
Current Conditions -  °F | °C
As of 3:15 AM on Saturday 25 Oct 2014 (Local Time) from KBDG Reporting Station
Clear Clear  
Wind Chill: 47°   Ceiling: Unl
Heat Index: 49°   Visibility: 10mi
Dew Point: 31°   Wind: 5mph
Humidity: 51%   Direction: 60°ENE
Pressure: 30.37"   Gusts: NA
Location:  37.22°N, 109.19°W
Report Text: KBDG 250915Z AUTO 06004KT 10SM CLR 09/00 A3037 RMK AO1 T00921005
Loading
Personal Weather Stations






























Interactive Weather Map New forecast layout! Learn more

10-Day Weather Forecast

Advertisements
Track Severe Weather on mobile